sensor_id;sensor_type;location;lat;lon;timestamp;pressure;altitude;pressure_sealevel;temperature;humidity
63399;BME280;49533;-34.520;150.798;2023-04-15T00:02:17;99894.50;;;21.56;56.10
63399;BME280;49533;-34.520;150.798;2023-04-15T00:04:47;99892.91;;;21.62;55.42
63399;BME280;49533;-34.520;150.798;2023-04-15T00:07:14;99778.09;;;20.93;55.56
63399;BME280;49533;-34.520;150.798;2023-04-15T00:09:41;99804.50;;;21.15;55.57
63399;BME280;49533;-34.520;150.798;2023-04-15T00:12:10;99889.69;;;21.78;55.55
63399;BME280;49533;-34.520;150.798;2023-04-15T00:14:38;99849.84;;;21.64;55.65
63399;BME280;49533;-34.520;150.798;2023-04-15T00:17:06;99865.97;;;21.87;55.90
63399;BME280;49533;-34.520;150.798;2023-04-15T00:19:33;99852.19;;;21.84;55.53
63399;BME280;49533;-34.520;150.798;2023-04-15T00:22:00;99867.13;;;21.97;55.40
63399;BME280;49533;-34.520;150.798;2023-04-15T00:24:27;99795.03;;;21.45;55.49
63399;BME280;49533;-34.520;150.798;2023-04-15T00:26:56;99870.28;;;22.06;55.54
63399;BME280;49533;-34.520;150.798;2023-04-15T00:29:24;99846.97;;;22.00;55.29
63399;BME280;49533;-34.520;150.798;2023-04-15T00:31:51;99842.63;;;22.06;54.93
63399;BME280;49533;-34.520;150.798;2023-04-15T00:34:18;99783.88;;;21.70;54.90
63399;BME280;49533;-34.520;150.798;2023-04-15T00:36:46;99856.41;;;22.24;55.21
63399;BME280;49533;-34.520;150.798;2023-04-15T00:39:13;99824.44;;;22.05;54.85
63399;BME280;49533;-34.520;150.798;2023-04-15T00:41:42;99809.03;;;22.01;54.95
63399;BME280;49533;-34.520;150.798;2023-04-15T00:44:09;99813.84;;;21.86;54.85
63399;BME280;49533;-34.520;150.798;2023-04-15T00:46:37;99851.56;;;22.39;54.55
63399;BME280;49533;-34.520;150.798;2023-04-15T00:49:06;99857.47;;;22.41;54.61
63399;BME280;49533;-34.520;150.798;2023-04-15T00:51:33;99856.66;;;22.44;54.93
63399;BME280;49533;-34.520;150.798;2023-04-15T00:54:03;99870.09;;;22.49;54.77
63399;BME280;49533;-34.520;150.798;2023-04-15T00:56:34;99799.50;;;22.12;55.02
63399;BME280;49533;-34.520;150.798;2023-04-15T00:59:01;99812.09;;;22.28;54.65
63399;BME280;49533;-34.520;150.798;2023-04-15T01:01:28;99811.25;;;22.38;54.37
63399;BME280;49533;-34.520;150.798;2023-04-15T01:03:57;99818.31;;;22.46;54.09
63399;BME280;49533;-34.520;150.798;2023-04-15T01:06:24;99802.13;;;22.45;54.58
63399;BME280;49533;-34.520;150.798;2023-04-15T01:08:56;99800.50;;;22.51;53.62
63399;BME280;49533;-34.520;150.798;2023-04-15T01:11:23;99825.25;;;22.72;53.69
63399;BME280;49533;-34.520;150.798;2023-04-15T01:13:51;99781.19;;;22.36;54.16
63399;BME280;49533;-34.520;150.798;2023-04-15T01:16:19;99832.34;;;22.77;53.66
63399;BME280;49533;-34.520;150.798;2023-04-15T01:18:46;99819.66;;;22.79;53.48
63399;BME280;49533;-34.520;150.798;2023-04-15T01:21:15;99770.81;;;22.55;53.60
63399;BME280;49533;-34.520;150.798;2023-04-15T01:23:44;99762.59;;;22.41;53.65
63399;BME280;49533;-34.520;150.798;2023-04-15T01:26:13;99787.31;;;22.69;53.57
63399;BME280;49533;-34.520;150.798;2023-04-15T01:28:40;99803.00;;;22.87;53.31
63399;BME280;49533;-34.520;150.798;2023-04-15T01:31:09;99780.06;;;22.83;53.53
63399;BME280;49533;-34.520;150.798;2023-04-15T01:33:38;99766.66;;;22.81;53.58
63399;BME280;49533;-34.520;150.798;2023-04-15T01:36:07;99762.34;;;22.76;53.32
63399;BME280;49533;-34.520;150.798;2023-04-15T01:38:36;99748.09;;;22.74;53.46
63399;BME280;49533;-34.520;150.798;2023-04-15T01:41:04;99763.38;;;22.97;53.25
63399;BME280;49533;-34.520;150.798;2023-04-15T01:43:34;99700.75;;;22.62;53.69
63399;BME280;49533;-34.520;150.798;2023-04-15T01:46:02;99760.94;;;23.03;53.52
63399;BME280;49533;-34.520;150.798;2023-04-15T01:48:29;99763.31;;;23.04;53.13
63399;BME280;49533;-34.520;150.798;2023-04-15T01:50:58;99730.19;;;22.86;52.96
63399;BME280;49533;-34.520;150.798;2023-04-15T01:53:26;99736.84;;;22.99;52.78
63399;BME280;49533;-34.520;150.798;2023-04-15T01:55:53;99745.81;;;23.11;53.04
63399;BME280;49533;-34.520;150.798;2023-04-15T01:58:21;99739.50;;;23.10;53.20
63399;BME280;49533;-34.520;150.798;2023-04-15T02:00:48;99715.88;;;22.95;53.08
63399;BME280;49533;-34.520;150.798;2023-04-15T02:03:15;99732.31;;;23.16;52.76
63399;BME280;49533;-34.520;150.798;2023-04-15T02:05:43;99722.00;;;23.17;51.80
63399;BME280;49533;-34.520;150.798;2023-04-15T02:08:10;99666.13;;;22.84;51.58
63399;BME280;49533;-34.520;150.798;2023-04-15T02:10:38;99698.34;;;23.09;51.77
63399;BME280;49533;-34.520;150.798;2023-04-15T02:13:06;99700.22;;;23.19;51.79
63399;BME280;49533;-34.520;150.798;2023-04-15T02:15:33;99633.72;;;22.81;51.82
63399;BME280;49533;-34.520;150.798;2023-04-15T02:18:00;99663.56;;;23.04;51.73
63399;BME280;49533;-34.520;150.798;2023-04-15T02:20:27;99683.16;;;23.24;51.89
63399;BME280;49533;-34.520;150.798;2023-04-15T02:22:56;99677.59;;;23.24;51.59
63399;BME280;49533;-34.520;150.798;2023-04-15T02:25:23;99655.53;;;23.13;51.68
63399;BME280;49533;-34.520;150.798;2023-04-15T02:27:50;99649.59;;;23.15;51.92
63399;BME280;49533;-34.520;150.798;2023-04-15T02:30:18;99660.16;;;23.27;51.84
63399;BME280;49533;-34.520;150.798;2023-04-15T02:32:45;99605.41;;;23.00;52.16
63399;BME280;49533;-34.520;150.798;2023-04-15T02:35:13;99627.81;;;23.17;52.11
63399;BME280;49533;-34.520;150.798;2023-04-15T02:37:40;99633.59;;;23.30;52.27
63399;BME280;49533;-34.520;150.798;2023-04-15T02:40:11;99629.22;;;23.29;52.31
63399;BME280;49533;-34.520;150.798;2023-04-15T02:42:39;99626.84;;;23.31;51.97
63399;BME280;49533;-34.520;150.798;2023-04-15T02:45:07;99600.81;;;23.21;52.13
63399;BME280;49533;-34.520;150.798;2023-04-15T02:47:35;99614.56;;;23.32;52.15
63399;BME280;49533;-34.520;150.798;2023-04-15T02:50:03;99609.78;;;23.32;52.02
63399;BME280;49533;-34.520;150.798;2023-04-15T02:52:30;99599.91;;;23.31;51.67
63399;BME280;49533;-34.520;150.798;2023-04-15T02:54:58;99542.19;;;22.92;51.70
63399;BME280;49533;-34.520;150.798;2023-04-15T02:57:27;99568.50;;;23.11;51.91
63399;BME280;49533;-34.520;150.798;2023-04-15T02:59:55;99547.69;;;22.99;51.48
63399;BME280;49533;-34.520;150.798;2023-04-15T03:02:22;99478.13;;;22.59;51.98
63399;BME280;49533;-34.520;150.798;2023-04-15T03:04:50;99548.00;;;23.05;51.89
63399;BME280;49533;-34.520;150.798;2023-04-15T03:07:18;99536.16;;;23.00;52.06
63399;BME280;49533;-34.520;150.798;2023-04-15T03:09:45;99570.22;;;23.32;52.31
63399;BME280;49533;-34.520;150.798;2023-04-15T03:12:13;99533.75;;;23.06;52.22
63399;BME280;49533;-34.520;150.798;2023-04-15T03:14:40;99498.66;;;22.92;52.55
63399;BME280;49533;-34.520;150.798;2023-04-15T03:17:08;99502.84;;;23.08;52.71
63399;BME280;49533;-34.520;150.798;2023-04-15T03:19:35;99563.56;;;23.53;52.57
63399;BME280;49533;-34.520;150.798;2023-04-15T03:22:02;99529.31;;;23.39;52.02
63399;BME280;49533;-34.520;150.798;2023-04-15T03:24:29;99548.78;;;23.63;52.29
63399;BME280;49533;-34.520;150.798;2023-04-15T03:26:56;99501.94;;;23.41;52.09
63399;BME280;49533;-34.520;150.798;2023-04-15T03:29:24;99539.91;;;23.75;52.03
63399;BME280;49533;-34.520;150.798;2023-04-15T03:31:51;99541.03;;;23.78;52.01
63399;BME280;49533;-34.520;150.798;2023-04-15T03:34:19;99465.19;;;23.37;52.26
63399;BME280;49533;-34.520;150.798;2023-04-15T03:36:46;99459.66;;;23.37;52.45
63399;BME280;49533;-34.520;150.798;2023-04-15T03:39:13;99510.66;;;23.67;52.15
63399;BME280;49533;-34.520;150.798;2023-04-15T03:41:41;99516.69;;;23.89;52.50
63399;BME280;49533;-34.520;150.798;2023-04-15T03:44:08;99496.31;;;23.76;53.03
63399;BME280;49533;-34.520;150.798;2023-04-15T03:46:35;99432.63;;;23.45;52.70
63399;BME280;49533;-34.520;150.798;2023-04-15T03:49:05;99467.88;;;23.68;52.73
63399;BME280;49533;-34.520;150.798;2023-04-15T03:51:32;99503.06;;;23.98;52.61
63399;BME280;49533;-34.520;150.798;2023-04-15T03:53:59;99504.22;;;24.01;52.65
63399;BME280;49533;-34.520;150.798;2023-04-15T03:56:27;99491.81;;;24.05;52.73
63399;BME280;49533;-34.520;150.798;2023-04-15T03:58:54;99477.25;;;24.01;52.50
63399;BME280;49533;-34.520;150.798;2023-04-15T04:01:22;99496.81;;;24.14;52.23
63399;BME280;49533;-34.520;150.798;2023-04-15T04:03:49;99487.72;;;24.14;51.75
63399;BME280;49533;-34.520;150.798;2023-04-15T04:06:16;99431.19;;;23.84;51.69
63399;BME280;49533;-34.520;150.798;2023-04-15T04:08:43;99447.13;;;24.00;51.59
63399;BME280;49533;-34.520;150.798;2023-04-15T04:11:11;99473.34;;;24.19;51.90
63399;BME280;49533;-34.520;150.798;2023-04-15T04:13:38;99451.13;;;23.99;51.88
63399;BME280;49533;-34.520;150.798;2023-04-15T04:16:06;99448.34;;;23.99;51.95
63399;BME280;49533;-34.520;150.798;2023-04-15T04:18:33;99483.31;;;24.16;51.68
63399;BME280;49533;-34.520;150.798;2023-04-15T04:21:01;99408.00;;;23.71;51.87
63399;BME280;49533;-34.520;150.798;2023-04-15T04:23:28;99426.41;;;23.84;51.72
63399;BME280;49533;-34.520;150.798;2023-04-15T04:25:55;99475.81;;;24.13;52.11
63399;BME280;49533;-34.520;150.798;2023-04-15T04:28:22;99475.47;;;24.11;51.79
63399;BME280;49533;-34.520;150.798;2023-04-15T04:30:50;99335.72;;;23.14;52.33
63399;BME280;49533;-34.520;150.798;2023-04-15T04:33:17;99452.59;;;23.83;52.64
63399;BME280;49533;-34.520;150.798;2023-04-15T04:35:45;99447.03;;;23.83;52.36
63399;BME280;49533;-34.520;150.798;2023-04-15T04:38:12;99483.06;;;24.07;52.05
63399;BME280;49533;-34.520;150.798;2023-04-15T04:40:39;99484.28;;;24.06;52.30
63399;BME280;49533;-34.520;150.798;2023-04-15T04:43:06;99433.00;;;23.67;51.79
63399;BME280;49533;-34.520;150.798;2023-04-15T04:45:33;99453.47;;;23.77;52.09
63399;BME280;49533;-34.520;150.798;2023-04-15T04:48:00;99472.59;;;23.95;52.22
63399;BME280;49533;-34.520;150.798;2023-04-15T04:50:27;99483.94;;;24.04;52.50
63399;BME280;49533;-34.520;150.798;2023-04-15T04:52:55;99489.47;;;24.04;52.84
63399;BME280;49533;-34.520;150.798;2023-04-15T04:55:22;99489.47;;;24.04;52.74
63399;BME280;49533;-34.520;150.798;2023-04-15T04:57:49;99489.47;;;24.04;53.02
63399;BME280;49533;-34.520;150.798;2023-04-15T05:00:18;99482.34;;;24.03;53.16
63399;BME280;49533;-34.520;150.798;2023-04-15T05:02:45;99438.91;;;23.73;53.17
63399;BME280;49533;-34.520;150.798;2023-04-15T05:05:12;99482.50;;;23.96;53.24
63399;BME280;49533;-34.520;150.798;2023-04-15T05:07:40;99484.41;;;23.99;53.02
63399;BME280;49533;-34.520;150.798;2023-04-15T05:10:08;99481.66;;;23.99;53.14
63399;BME280;49533;-34.520;150.798;2023-04-15T05:12:35;99433.38;;;23.69;53.29
63399;BME280;49533;-34.520;150.798;2023-04-15T05:15:05;99480.06;;;23.98;53.43
63399;BME280;49533;-34.520;150.798;2023-04-15T05:17:32;99488.38;;;23.98;53.38
63399;BME280;49533;-34.520;150.798;2023-04-15T05:20:01;99477.84;;;23.89;53.49
63399;BME280;49533;-34.520;150.798;2023-04-15T05:22:28;99436.63;;;23.64;54.12
63399;BME280;49533;-34.520;150.798;2023-04-15T05:24:56;99455.06;;;23.78;53.95
63399;BME280;49533;-34.520;150.798;2023-04-15T05:27:23;99473.06;;;23.90;54.37
63399;BME280;49533;-34.520;150.798;2023-04-15T05:29:50;99485.59;;;23.98;54.13
63399;BME280;49533;-34.520;150.798;2023-04-15T05:32:18;99481.28;;;23.97;54.41
63399;BME280;49533;-34.520;150.798;2023-04-15T05:34:45;99482.50;;;23.96;54.11
63399;BME280;49533;-34.520;150.798;2023-04-15T05:37:12;99448.03;;;23.70;54.58
63399;BME280;49533;-34.520;150.798;2023-04-15T05:39:40;99486.47;;;23.95;54.67
63399;BME280;49533;-34.520;150.798;2023-04-15T05:42:07;99406.56;;;23.39;54.67
63399;BME280;49533;-34.520;150.798;2023-04-15T05:44:34;99501.09;;;23.95;54.86
63399;BME280;49533;-34.520;150.798;2023-04-15T05:47:01;99459.03;;;23.77;54.87
63399;BME280;49533;-34.520;150.798;2023-04-15T05:49:29;99465.78;;;23.76;55.11
63399;BME280;49533;-34.520;150.798;2023-04-15T05:51:56;99491.22;;;23.94;55.02
63399;BME280;49533;-34.520;150.798;2023-04-15T05:54:23;99434.31;;;23.62;55.43
63399;BME280;49533;-34.520;150.798;2023-04-15T05:56:52;99426.88;;;23.56;55.21
63399;BME280;49533;-34.520;150.798;2023-04-15T05:59:19;99466.81;;;23.85;55.09
63399;BME280;49533;-34.520;150.798;2023-04-15T06:01:47;99480.13;;;23.94;55.45
63399;BME280;49533;-34.520;150.798;2023-04-15T06:04:14;99453.44;;;23.80;56.22
63399;BME280;49533;-34.520;150.798;2023-04-15T06:06:42;99450.38;;;23.71;56.69
63399;BME280;49533;-34.520;150.798;2023-04-15T06:09:10;99463.44;;;23.74;57.03
63399;BME280;49533;-34.520;150.798;2023-04-15T06:11:37;99477.25;;;23.78;57.19
63399;BME280;49533;-34.520;150.798;2023-04-15T06:14:06;99426.22;;;23.48;56.80
63399;BME280;49533;-34.520;150.798;2023-04-15T06:16:33;99421.53;;;23.45;56.92
63399;BME280;49533;-34.520;150.798;2023-04-15T06:19:02;99433.97;;;23.57;57.55
63399;BME280;49533;-34.520;150.798;2023-04-15T06:21:29;99435.75;;;23.47;57.53
63399;BME280;49533;-34.520;150.798;2023-04-15T06:23:58;99472.22;;;23.69;57.25
63399;BME280;49533;-34.520;150.798;2023-04-15T06:26:27;99451.47;;;23.54;57.20
63399;BME280;49533;-34.520;150.798;2023-04-15T06:28:54;99456.16;;;23.57;57.41
63399;BME280;49533;-34.520;150.798;2023-04-15T06:31:21;99404.06;;;23.21;57.03
63399;BME280;49533;-34.520;150.798;2023-04-15T06:33:49;99440.63;;;23.39;57.50
63399;BME280;49533;-34.520;150.798;2023-04-15T06:36:16;99472.09;;;23.53;57.46
63399;BME280;49533;-34.520;150.798;2023-04-15T06:38:43;99472.03;;;23.56;57.56
63399;BME280;49533;-34.520;150.798;2023-04-15T06:41:11;99474.13;;;23.49;57.71
63399;BME280;49533;-34.520;150.798;2023-04-15T06:43:38;99494.19;;;23.56;57.86
63399;BME280;49533;-34.520;150.798;2023-04-15T06:46:06;99424.00;;;23.12;58.12
63399;BME280;49533;-34.520;150.798;2023-04-15T06:48:33;99491.66;;;23.42;57.53
63399;BME280;49533;-34.520;150.798;2023-04-15T06:51:00;99437.09;;;23.12;58.22
63399;BME280;49533;-34.520;150.798;2023-04-15T06:53:27;99494.47;;;23.38;58.38
63399;BME280;49533;-34.520;150.798;2023-04-15T06:55:54;99474.50;;;23.23;58.19
63399;BME280;49533;-34.520;150.798;2023-04-15T06:58:22;99511.06;;;23.42;58.21
63399;BME280;49533;-34.520;150.798;2023-04-15T07:00:50;99484.09;;;23.19;58.90
63399;BME280;49533;-34.520;150.798;2023-04-15T07:03:17;99471.69;;;23.00;59.03
63399;BME280;49533;-34.520;150.798;2023-04-15T07:05:44;99469.69;;;23.00;59.45
63399;BME280;49533;-34.520;150.798;2023-04-15T07:08:11;99478.38;;;23.03;59.64
63399;BME280;49533;-34.520;150.798;2023-04-15T07:10:39;99516.06;;;23.23;59.49
63399;BME280;49533;-34.520;150.798;2023-04-15T07:13:07;99500.53;;;23.03;59.69
63399;BME280;49533;-34.520;150.798;2023-04-15T07:15:34;99479.66;;;22.94;59.73
63399;BME280;49533;-34.520;150.798;2023-04-15T07:18:02;99441.25;;;22.66;59.83
63399;BME280;49533;-34.520;150.798;2023-04-15T07:20:29;99513.75;;;23.18;59.25
63399;BME280;49533;-34.520;150.798;2023-04-15T07:22:56;99540.13;;;23.30;59.10
63399;BME280;49533;-34.520;150.798;2023-04-15T07:25:23;99543.69;;;23.31;59.18
63399;BME280;49533;-34.520;150.798;2023-04-15T07:27:52;99537.47;;;23.23;58.95
63399;BME280;49533;-34.520;150.798;2023-04-15T07:30:20;99571.63;;;23.43;58.72
63399;BME280;49533;-34.520;150.798;2023-04-15T07:32:47;99565.59;;;23.49;58.63
63399;BME280;49533;-34.520;150.798;2023-04-15T07:35:14;99559.22;;;23.52;58.30
63399;BME280;49533;-34.520;150.798;2023-04-15T07:37:41;99565.97;;;23.51;58.26
63399;BME280;49533;-34.520;150.798;2023-04-15T07:40:09;99563.22;;;23.51;58.09
63399;BME280;49533;-34.520;150.798;2023-04-15T07:42:37;99574.66;;;23.53;58.08
63399;BME280;49533;-34.520;150.798;2023-04-15T07:45:05;99564.88;;;23.44;58.02
63399;BME280;49533;-34.520;150.798;2023-04-15T07:47:32;99579.00;;;23.54;57.96
63399;BME280;49533;-34.520;150.798;2023-04-15T07:49:59;99588.53;;;23.53;57.87
63399;BME280;49533;-34.520;150.798;2023-04-15T07:52:27;99592.50;;;23.52;57.72
63399;BME280;49533;-34.520;150.798;2023-04-15T07:54:54;99543.94;;;23.13;57.76
63399;BME280;49533;-34.520;150.798;2023-04-15T07:57:21;99603.56;;;23.52;57.67
63399;BME280;49533;-34.520;150.798;2023-04-15T07:59:49;99589.63;;;23.32;58.19
63399;BME280;49533;-34.520;150.798;2023-04-15T08:02:16;99602.31;;;23.29;59.18
63399;BME280;49533;-34.520;150.798;2023-04-15T08:04:44;99611.56;;;23.19;59.62
63399;BME280;49533;-34.520;150.798;2023-04-15T08:07:11;99575.81;;;22.94;59.93
63399;BME280;49533;-34.520;150.798;2023-04-15T08:09:38;99582.97;;;22.91;60.01
63399;BME280;49533;-34.520;150.798;2023-04-15T08:12:05;99598.00;;;22.90;59.91
63399;BME280;49533;-34.520;150.798;2023-04-15T08:14:34;99616.16;;;22.98;60.17
63399;BME280;49533;-34.520;150.798;2023-04-15T08:17:02;99587.81;;;22.84;59.86
63399;BME280;49533;-34.520;150.798;2023-04-15T08:19:30;99614.09;;;23.03;59.97
63399;BME280;49533;-34.520;150.798;2023-04-15T08:21:57;99601.22;;;22.85;60.38
63399;BME280;49533;-34.520;150.798;2023-04-15T08:24:24;99575.44;;;22.57;60.49
63399;BME280;49533;-34.520;150.798;2023-04-15T08:26:52;99584.00;;;22.70;60.19
63399;BME280;49533;-34.520;150.798;2023-04-15T08:29:19;99606.66;;;22.96;59.41
63399;BME280;49533;-34.520;150.798;2023-04-15T08:31:47;99635.75;;;23.15;59.19
63399;BME280;49533;-34.520;150.798;2023-04-15T08:34:14;99592.09;;;22.88;59.06
63399;BME280;49533;-34.520;150.798;2023-04-15T08:36:42;99642.75;;;23.23;59.03
63399;BME280;49533;-34.520;150.798;2023-04-15T08:39:09;99637.13;;;23.30;58.65
63399;BME280;49533;-34.520;150.798;2023-04-15T08:41:45;99614.66;;;23.25;58.65
63399;BME280;49533;-34.520;150.798;2023-04-15T08:44:13;99634.66;;;23.39;58.49
63399;BME280;49533;-34.520;150.798;2023-04-15T08:46:41;99631.81;;;23.43;57.96
63399;BME280;49533;-34.520;150.798;2023-04-15T08:49:11;99619.25;;;23.35;58.27
63399;BME280;49533;-34.520;150.798;2023-04-15T08:51:40;99505.66;;;22.70;58.22
63399;BME280;49533;-34.520;150.798;2023-04-15T08:54:08;99571.72;;;23.06;57.96
63399;BME280;49533;-34.520;150.798;2023-04-15T08:56:37;99638.06;;;23.51;57.97
63399;BME280;49533;-34.520;150.798;2023-04-15T08:59:04;99638.44;;;23.53;58.18
63399;BME280;49533;-34.520;150.798;2023-04-15T09:01:37;99629.00;;;23.47;57.94
63399;BME280;49533;-34.520;150.798;2023-04-15T09:04:05;99506.41;;;22.74;57.89
63399;BME280;49533;-34.520;150.798;2023-04-15T09:06:33;99588.09;;;23.27;57.82
63399;BME280;49533;-34.520;150.798;2023-04-15T09:09:01;99639.13;;;23.60;57.87
63399;BME280;49533;-34.520;150.798;2023-04-15T09:11:29;99617.88;;;23.50;57.70
63399;BME280;49533;-34.520;150.798;2023-04-15T09:13:56;99630.03;;;23.60;57.57
63399;BME280;49533;-34.520;150.798;2023-04-15T09:16:23;99582.44;;;23.34;57.53
63399;BME280;49533;-34.520;150.798;2023-04-15T09:18:51;99616.63;;;23.55;57.87
63399;BME280;49533;-34.520;150.798;2023-04-15T09:21:18;99623.19;;;23.64;57.43
63399;BME280;49533;-34.520;150.798;2023-04-15T09:23:58;99623.19;;;23.64;57.61
63399;BME280;49533;-34.520;150.798;2023-04-15T09:26:34;99620.03;;;23.66;57.43
63399;BME280;49533;-34.520;150.798;2023-04-15T09:29:06;99628.34;;;23.66;57.50
63399;BME280;49533;-34.520;150.798;2023-04-15T09:31:35;99640.22;;;23.66;57.35
63399;BME280;49533;-34.520;150.798;2023-04-15T09:34:03;99632.66;;;23.67;57.43
63399;BME280;49533;-34.520;150.798;2023-04-15T09:36:51;99631.13;;;23.66;57.46
63399;BME280;49533;-34.520;150.798;2023-04-15T09:39:19;99625.94;;;23.68;57.19
63399;BME280;49533;-34.520;150.798;2023-04-15T09:41:52;99618.41;;;23.69;57.32
63399;BME280;49533;-34.520;150.798;2023-04-15T09:44:30;99607.50;;;23.54;57.31
63399;BME280;49533;-34.520;150.798;2023-04-15T09:46:57;99590.66;;;23.41;57.35
63399;BME280;49533;-34.520;150.798;2023-04-15T09:49:24;99566.88;;;23.13;57.15
63399;BME280;49533;-34.520;150.798;2023-04-15T09:51:58;99633.03;;;23.69;57.52
63399;BME280;49533;-34.520;150.798;2023-04-15T09:54:33;99635.81;;;23.69;57.18
63399;BME280;49533;-34.520;150.798;2023-04-15T09:57:05;99544.81;;;23.06;57.16
63399;BME280;49533;-34.520;150.798;2023-04-15T09:59:33;99641.59;;;23.55;57.89
63399;BME280;49533;-34.520;150.798;2023-04-15T10:02:03;99524.56;;;22.78;58.15
63399;BME280;49533;-34.520;150.798;2023-04-15T10:04:35;99628.66;;;23.44;58.29
63399;BME280;49533;-34.520;150.798;2023-04-15T10:07:04;99642.03;;;23.50;58.16
63399;BME280;49533;-34.520;150.798;2023-04-15T10:09:32;99566.19;;;23.06;57.64
63399;BME280;49533;-34.520;150.798;2023-04-15T10:12:03;99604.25;;;23.32;57.84
63399;BME280;49533;-34.520;150.798;2023-04-15T10:14:37;99581.78;;;23.23;57.69
63399;BME280;49533;-34.520;150.798;2023-04-15T10:17:05;99606.72;;;23.27;57.64
63399;BME280;49533;-34.520;150.798;2023-04-15T10:19:36;99601.38;;;23.39;57.47
63399;BME280;49533;-34.520;150.798;2023-04-15T10:22:04;99558.16;;;23.15;57.39
63399;BME280;49533;-34.520;150.798;2023-04-15T10:24:32;99628.06;;;23.57;57.38
63399;BME280;49533;-34.520;150.798;2023-04-15T10:27:00;99621.75;;;23.56;57.43
63399;BME280;49533;-34.520;150.798;2023-04-15T10:29:29;99625.28;;;23.57;57.38
63399;BME280;49533;-34.520;150.798;2023-04-15T10:31:58;99593.53;;;23.34;57.20
63399;BME280;49533;-34.520;150.798;2023-04-15T10:34:27;99563.69;;;23.15;57.24
63399;BME280;49533;-34.520;150.798;2023-04-15T10:37:00;99594.25;;;23.38;57.36
63399;BME280;49533;-34.520;150.798;2023-04-15T10:39:41;99540.06;;;23.07;57.27
63399;BME280;49533;-34.520;150.798;2023-04-15T10:42:12;99615.41;;;23.56;56.94
63399;BME280;49533;-34.520;150.798;2023-04-15T10:44:42;99599.31;;;23.47;57.28
63399;BME280;49533;-34.520;150.798;2023-04-15T10:47:13;99602.84;;;23.48;57.21
63399;BME280;49533;-34.520;150.798;2023-04-15T10:49:50;99549.16;;;23.07;57.24
63399;BME280;49533;-34.520;150.798;2023-04-15T10:52:23;99623.72;;;23.56;57.10
63399;BME280;49533;-34.520;150.798;2023-04-15T10:55:12;99557.47;;;23.07;57.10
63399;BME280;49533;-34.520;150.798;2023-04-15T10:57:43;99615.81;;;23.54;57.06
63399;BME280;49533;-34.520;150.798;2023-04-15T11:00:12;99617.81;;;23.54;57.04
63399;BME280;49533;-34.520;150.798;2023-04-15T11:02:46;99619.41;;;23.55;56.99
63399;BME280;49533;-34.520;150.798;2023-04-15T11:05:14;99610.03;;;23.45;57.09
63399;BME280;49533;-34.520;150.798;2023-04-15T11:07:50;99527.50;;;22.95;57.19
63399;BME280;49533;-34.520;150.798;2023-04-15T11:13:20;99610.28;;;23.54;56.87
63399;BME280;49533;-34.520;150.798;2023-04-15T11:15:48;99570.00;;;23.19;57.05
63399;BME280;49533;-34.520;150.798;2023-04-15T11:18:21;99559.63;;;23.23;56.87
63399;BME280;49533;-34.520;150.798;2023-04-15T11:20:52;99545.53;;;23.10;56.86
63399;BME280;49533;-34.520;150.798;2023-04-15T11:23:31;99611.91;;;23.52;56.87
63399;BME280;49533;-34.520;150.798;2023-04-15T11:26:00;99560.94;;;23.15;56.58
63399;BME280;49533;-34.520;150.798;2023-04-15T11:28:29;99542.84;;;23.07;56.56
63399;BME280;49533;-34.520;150.798;2023-04-15T11:30:57;99611.19;;;23.48;56.59
63399;BME280;49533;-34.520;150.798;2023-04-15T11:33:25;99533.06;;;22.98;56.40
63399;BME280;49533;-34.520;150.798;2023-04-15T11:35:52;99602.94;;;23.40;56.42
63399;BME280;49533;-34.520;150.798;2023-04-15T11:38:20;99548.84;;;23.02;56.11
63399;BME280;49533;-34.520;150.798;2023-04-15T11:40:48;99597.13;;;23.31;56.29
63399;BME280;49533;-34.520;150.798;2023-04-15T11:43:20;99557.88;;;23.06;56.28
63399;BME280;49533;-34.520;150.798;2023-04-15T11:45:57;99583.38;;;23.24;55.96
63399;BME280;49533;-34.520;150.798;2023-04-15T11:48:31;99595.94;;;23.32;55.86
63399;BME280;49533;-34.520;150.798;2023-04-15T11:51:01;99568.38;;;23.21;55.87
63399;BME280;49533;-34.520;150.798;2023-04-15T11:53:45;99583.84;;;23.19;56.18
63399;BME280;49533;-34.520;150.798;2023-04-15T11:56:18;99587.66;;;23.29;55.66
63399;BME280;49533;-34.520;150.798;2023-04-15T11:58:47;99599.03;;;23.38;55.78
63399;BME280;49533;-34.520;150.798;2023-04-15T12:01:16;99593.88;;;23.36;55.97
63399;BME280;49533;-34.520;150.798;2023-04-15T12:03:47;99535.41;;;22.96;55.74
63399;BME280;49533;-34.520;150.798;2023-04-15T12:06:20;99585.63;;;23.33;55.84
63399;BME280;49533;-34.520;150.798;2023-04-15T12:08:58;99584.47;;;23.30;55.69
63399;BME280;49533;-34.520;150.798;2023-04-15T12:11:30;99555.84;;;23.10;55.89
63399;BME280;49533;-34.520;150.798;2023-04-15T12:14:03;99532.34;;;22.87;55.92
63399;BME280;49533;-34.520;150.798;2023-04-15T12:16:33;99590.44;;;23.29;56.18
63399;BME280;49533;-34.520;150.798;2023-04-15T12:19:05;99585.03;;;23.18;55.92
63399;BME280;49533;-34.520;150.798;2023-04-15T12:21:34;99593.63;;;23.27;55.83
63399;BME280;49533;-34.520;150.798;2023-04-15T12:24:04;99597.97;;;23.28;55.79
63399;BME280;49533;-34.520;150.798;2023-04-15T12:26:36;99589.78;;;23.17;55.91
63399;BME280;49533;-34.520;150.798;2023-04-15T12:29:06;99580.31;;;23.15;55.71
63399;BME280;49533;-34.520;150.798;2023-04-15T12:31:35;99466.94;;;22.35;55.79
63399;BME280;49533;-34.520;150.798;2023-04-15T12:34:06;99547.81;;;22.85;55.69
63399;BME280;49533;-34.520;150.798;2023-04-15T12:36:34;99597.59;;;23.26;55.72
63399;BME280;49533;-34.520;150.798;2023-04-15T12:39:03;99589.03;;;23.13;55.69
63399;BME280;49533;-34.520;150.798;2023-04-15T12:41:32;99593.31;;;23.21;55.81